Hovedside
METAR-TAF:

METAR-TAF

Lufthavner :

Benguela, Angola

breddegrad: 12-36-30S, lengdegrad: 13-24-10E, høyde over havet: 36 m

METAR: fraværende

Tid: 21:48 (20:48 UTC)

Varsel

Denne rapporten ble laget for 9 timer og 53 minutter siden, klokken 10:55 UTC
Varsel gyldig fra 21. klokken 12 UTC til 21. klokken 24 UTC
Vind 10 kt fra Vest-nordvest
Sikt 10 km eller mer
Overskyet i en høyde av 1500 ft
Midlertidig
fra 21. klokken 18 UTC til 21. klokken 21 UTC
Spredte skyer i en høyde av 1600 ft
Blir
fra 21. klokken 22 UTC til 21. klokken 24 UTC
Vind 5 kt fra Sørvest
Sikt: 7000 m

TAF: FNBG 211055Z 2112/2124 29010KT 9999 OVC015 TEMPO 2118/2121 SCT016 BECMG 2122/2124 23005KT 7000

Værobservasjoner og værvarsel for over 4000 flyplasser (METAR- og TAF-rapporter).

Tilgjengelige stasjoner er representert av de røde og gule prikkene på kartet.

Hold musepekeren over prikken for å se navnet på stasjonen.

Klikk så for å se værobservasjoner og -varsler.

For å forandre kartet kan du klikke på den grønne knappen med svart kryss for å zoome inn, på den grønne knappen med strek for å zoome ut, eller på de grønne pilene for å se tilstøtende kart.


METAR-TAF: